Time;durP1;ratioP1;P1;durP2;ratioP2;P2;SDS_P1;SDS_P2;PMS_P1;PMS_P2;Temp;Humidity;BMP_temperature;BMP_pressure;BME280_temperature;BME280_humidity;BME280_pressure;Samples;Min_cycle;Max_cycle;Signal;HPM_P1;HPM_P2
2021/05/07 00:02:07;;;;;;;;;;;;;;;6.04;72.02;100787.50;5040419;28;19936;-73
2021/05/07 00:04:33;;;;;;;;;;;;;;;6.02;73.72;100790.22;5061927;28;19931;-73
2021/05/07 00:06:59;;;;;;;;;;;;;;;5.97;73.35;100787.13;5047690;28;19932;-73
2021/05/07 00:09:27;;;;;;;;;;;;;;;5.96;73.40;100789.84;5060456;28;19939;-73
2021/05/07 00:11:53;;;;;;;;;;;;;;;5.98;73.80;100798.34;5061073;28;20010;-74
2021/05/07 00:14:19;;;;;;;;;;;;;;;5.99;73.35;100789.63;5054018;28;19924;-73
2021/05/07 00:16:45;;;;;;;;;;;;;;;6.00;73.31;100793.84;5063162;28;19963;-73
2021/05/07 00:19:11;;;;;;;;;;;;;;;6.06;73.11;100796.84;5050456;28;19924;-73
2021/05/07 00:21:38;;;;;;;;;;;;;;;6.05;73.25;100787.34;5056310;28;20284;-73
2021/05/07 00:24:06;;;;;;;;;;;;;;;6.04;73.78;100790.09;5054599;28;20193;-73
2021/05/07 00:26:32;;;;;;;;;;;;;;;5.96;72.74;100793.28;5063475;28;19932;-73
2021/05/07 00:28:58;;;;;;;;;;;;;;;5.94;72.79;100790.75;5063889;28;19934;-73
2021/05/07 00:31:24;;;;;;;;;;;;;;;5.74;74.12;100787.06;5056123;28;20351;-73
2021/05/07 00:33:50;;;;;;;;;;;;;;;5.71;73.37;100795.09;5056855;28;19924;-73
2021/05/07 00:36:16;;;;;;;;;;;;;;;5.73;73.35;100797.59;5046588;28;20390;-73
2021/05/07 00:38:42;;;;;;;;;;;;;;;5.64;73.42;100796.50;5066543;28;19959;-73
2021/05/07 00:41:08;;;;;;;;;;;;;;;5.62;72.95;100798.38;5053988;28;20474;-74
2021/05/07 00:43:33;;;;;;;;;;;;;;;5.61;73.69;100794.13;5063582;28;19924;-73
2021/05/07 00:45:59;;;;;;;;;;;;;;;5.60;73.64;100799.44;5061610;28;19931;-73
2021/05/07 00:48:26;;;;;;;;;;;;;;;5.54;73.81;100804.16;5050530;28;19931;-72
2021/05/07 00:50:52;;;;;;;;;;;;;;;5.53;73.80;100796.50;5058615;28;19970;-73
2021/05/07 00:53:19;;;;;;;;;;;;;;;5.54;73.98;100800.72;5049552;28;19990;-73
2021/05/07 00:55:45;;;;;;;;;;;;;;;5.55;74.06;100802.41;5059423;28;20444;-73
2021/05/07 00:58:11;;;;;;;;;;;;;;;5.51;73.72;100801.81;5055137;28;19936;-72
2021/05/07 01:00:37;;;;;;;;;;;;;;;5.38;73.95;100800.22;5060665;28;20069;-72
2021/05/07 01:03:03;;;;;;;;;;;;;;;5.34;73.60;100804.81;5054605;28;20026;-72
2021/05/07 01:05:29;;;;;;;;;;;;;;;5.24;74.06;100806.44;5049568;28;20449;-73
2021/05/07 01:07:56;;;;;;;;;;;;;;;5.20;74.10;100810.22;5057367;28;19927;-72
2021/05/07 01:10:22;;;;;;;;;;;;;;;5.17;74.47;100807.81;5054809;28;20375;-72
2021/05/07 01:12:49;;;;;;;;;;;;;;;5.13;74.58;100815.00;5061736;28;19971;-72
2021/05/07 01:15:35;;;;;;;;;;;;;;;5.17;74.29;100813.84;5044969;28;19942;-72
2021/05/07 01:18:01;;;;;;;;;;;;;;;5.10;73.69;100808.28;5052210;28;19924;-72
2021/05/07 01:20:29;;;;;;;;;;;;;;;5.14;74.56;100808.88;5054004;28;20388;-72
2021/05/07 01:22:56;;;;;;;;;;;;;;;5.12;74.15;100815.97;5063499;28;19951;-72
2021/05/07 01:25:23;;;;;;;;;;;;;;;5.11;75.16;100817.72;5064771;28;19994;-72
2021/05/07 01:27:50;;;;;;;;;;;;;;;5.10;74.79;100821.28;5058565;28;19952;-72
2021/05/07 01:30:16;;;;;;;;;;;;;;;5.06;74.81;100829.41;5059554;28;19959;-72
2021/05/07 01:32:43;;;;;;;;;;;;;;;5.07;74.01;100831.88;5033077;28;20394;-73
2021/05/07 01:35:14;;;;;;;;;;;;;;;5.00;73.35;100843.69;5052461;28;19924;-72
2021/05/07 01:37:41;;;;;;;;;;;;;;;4.95;73.50;100838.78;5063407;28;20043;-72
2021/05/07 01:40:27;;;;;;;;;;;;;;;4.90;73.65;100846.09;5054847;28;20256;-72
2021/05/07 01:42:54;;;;;;;;;;;;;;;4.83;73.49;100844.88;5061615;28;20030;-72
2021/05/07 01:45:22;;;;;;;;;;;;;;;4.79;73.36;100840.81;5055596;28;20406;-72
2021/05/07 01:47:48;;;;;;;;;;;;;;;4.73;74.00;100849.06;5066756;28;19963;-72
2021/05/07 01:50:17;;;;;;;;;;;;;;;4.73;73.99;100857.69;5059550;28;20667;-72
2021/05/07 01:52:43;;;;;;;;;;;;;;;4.74;73.92;100866.31;5069358;28;19985;-72
2021/05/07 01:55:10;;;;;;;;;;;;;;;4.70;73.67;100857.88;5060448;28;20364;-72
2021/05/07 01:57:37;;;;;;;;;;;;;;;4.66;74.31;100860.81;5064629;28;20410;-72
2021/05/07 02:00:07;;;;;;;;;;;;;;;4.69;74.01;100864.03;5059548;28;20375;-72
2021/05/07 02:02:33;;;;;;;;;;;;;;;4.67;73.54;100863.31;5052720;28;19925;-72
2021/05/07 02:04:59;;;;;;;;;;;;;;;4.63;73.59;100855.84;5063837;28;20246;-72
2021/05/07 02:07:25;;;;;;;;;;;;;;;4.59;74.25;100862.16;5057519;28;19943;-72
2021/05/07 02:09:51;;;;;;;;;;;;;;;4.61;74.59;100861.16;5063659;28;20272;-72
2021/05/07 02:12:17;;;;;;;;;;;;;;;4.55;75.12;100859.81;5054620;28;20335;-72
2021/05/07 02:14:44;;;;;;;;;;;;;;;4.51;75.04;100863.56;5056784;28;19925;-73
2021/05/07 02:17:09;;;;;;;;;;;;;;;4.55;75.83;100859.81;5065002;28;19925;-72
2021/05/07 02:19:36;;;;;;;;;;;;;;;4.58;75.16;100871.72;5056118;28;19946;-73
2021/05/07 02:22:02;;;;;;;;;;;;;;;4.55;75.01;100867.59;5065005;28;19970;-72
2021/05/07 02:24:28;;;;;;;;;;;;;;;4.55;75.50;100872.78;5055684;28;20015;-72
2021/05/07 02:26:54;;;;;;;;;;;;;;;4.59;75.59;100865.63;5038281;28;19924;-72
2021/05/07 02:29:20;;;;;;;;;;;;;;;4.62;74.75;100869.75;5063265;28;19928;-72
2021/05/07 02:31:46;;;;;;;;;;;;;;;4.63;74.93;100859.28;5054213;28;20665;-72
2021/05/07 02:34:13;;;;;;;;;;;;;;;4.60;75.16;100864.66;5060196;28;19932;-72
2021/05/07 02:36:39;;;;;;;;;;;;;;;4.61;75.34;100866.34;5055866;28;20273;-72
2021/05/07 02:39:05;;;;;;;;;;;;;;;4.51;75.45;100876.53;5061513;28;20384;-72
2021/05/07 02:41:32;;;;;;;;;;;;;;;4.54;75.18;100880.69;5052704;28;20399;-73
2021/05/07 02:43:58;;;;;;;;;;;;;;;4.52;75.44;100892.94;5061930;28;19967;-73
2021/05/07 02:46:24;;;;;;;;;;;;;;;4.45;76.03;100889.94;5067449;28;20283;-73
2021/05/07 02:48:50;;;;;;;;;;;;;;;4.46;76.37;100890.78;5059847;28;19924;-73
2021/05/07 02:51:16;;;;;;;;;;;;;;;4.36;76.86;100893.16;5049913;28;20376;-73
2021/05/07 02:53:42;;;;;;;;;;;;;;;4.41;76.86;100888.50;5035017;28;20011;-73
2021/05/07 02:56:08;;;;;;;;;;;;;;;4.45;77.06;100882.16;5061558;28;19924;-73
2021/05/07 02:58:34;;;;;;;;;;;;;;;4.43;77.11;100885.78;5041423;28;20430;-73
2021/05/07 03:01:00;;;;;;;;;;;;;;;4.48;76.78;100878.50;5062916;28;19931;-73
2021/05/07 03:03:26;;;;;;;;;;;;;;;4.55;77.17;100884.97;5062594;28;20376;-73
2021/05/07 03:05:52;;;;;;;;;;;;;;;4.59;77.13;100876.00;5038297;28;19924;-72
2021/05/07 03:08:24;;;;;;;;;;;;;;;4.71;76.38;100876.94;5054919;28;19924;-72
2021/05/07 03:10:50;;;;;;;;;;;;;;;4.77;76.82;100873.06;5038685;28;20002;-72
2021/05/07 03:13:16;;;;;;;;;;;;;;;4.85;77.40;100881.16;5061859;28;19947;-72
2021/05/07 03:15:42;;;;;;;;;;;;;;;4.84;76.91;100885.53;5056079;28;20037;-72
2021/05/07 03:18:15;;;;;;;;;;;;;;;4.89;76.71;100885.19;5062551;28;19928;-72
2021/05/07 03:20:41;;;;;;;;;;;;;;;4.92;76.68;100884.97;5057201;28;20383;-73
2021/05/07 03:23:07;;;;;;;;;;;;;;;4.95;76.79;100893.38;5049942;28;20078;-72
2021/05/07 03:25:33;;;;;;;;;;;;;;;4.94;76.60;100888.31;5063989;28;19931;-73
2021/05/07 03:27:59;;;;;;;;;;;;;;;4.93;76.54;100897.03;5056386;28;20015;-72
2021/05/07 03:30:25;;;;;;;;;;;;;;;4.90;76.88;100897.25;5063195;28;19931;-73
2021/05/07 03:32:51;;;;;;;;;;;;;;;4.95;77.03;100903.78;5056026;28;20382;-73
2021/05/07 03:35:17;;;;;;;;;;;;;;;4.98;76.45;100913.16;5054922;28;20112;-73
2021/05/07 03:37:43;;;;;;;;;;;;;;;5.03;76.23;100911.03;5058995;28;20375;-73
2021/05/07 03:40:09;;;;;;;;;;;;;;;5.04;77.07;100917.09;5038925;28;19924;-73
2021/05/07 03:42:35;;;;;;;;;;;;;;;5.06;76.74;100918.63;5059795;28;19966;-73
2021/05/07 03:45:01;;;;;;;;;;;;;;;5.08;76.77;100932.34;5056881;28;19927;-73
2021/05/07 03:47:27;;;;;;;;;;;;;;;5.12;76.38;100943.38;5061194;28;19971;-73
2021/05/07 03:49:53;;;;;;;;;;;;;;;5.13;76.36;100942.44;5056741;28;20357;-73
2021/05/07 03:52:19;;;;;;;;;;;;;;;5.14;76.42;100949.31;5056098;28;19994;-73
2021/05/07 03:54:46;;;;;;;;;;;;;;;5.13;76.71;100943.25;5062429;28;19986;-73
2021/05/07 03:57:12;;;;;;;;;;;;;;;5.18;76.52;100949.91;5063155;28;19924;-73
2021/05/07 03:59:38;;;;;;;;;;;;;;;5.21;76.04;100947.91;5062258;28;20024;-72
2021/05/07 04:02:04;;;;;;;;;;;;;;;5.24;76.19;100957.28;5026712;28;19928;-73
2021/05/07 04:04:32;;;;;;;;;;;;;;;5.22;77.41;100973.00;5057088;28;20083;-72
2021/05/07 04:06:58;;;;;;;;;;;;;;;5.24;77.59;100971.13;5063061;28;19978;-73
2021/05/07 04:09:32;;;;;;;;;;;;;;;5.27;77.75;100968.31;5053725;28;20362;-73
2021/05/07 04:12:00;;;;;;;;;;;;;;;5.20;77.03;100969.66;5065092;28;19978;-73
2021/05/07 04:14:26;;;;;;;;;;;;;;;5.10;77.42;100977.28;5053908;28;19924;-73
2021/05/07 04:16:52;;;;;;;;;;;;;;;5.15;77.70;100996.00;5058272;28;20456;-73
2021/05/07 04:19:18;;;;;;;;;;;;;;;5.13;78.49;101003.06;5036556;28;20370;-73
2021/05/07 04:21:44;;;;;;;;;;;;;;;5.17;78.79;101024.47;5062970;28;19997;-73
2021/05/07 04:24:10;;;;;;;;;;;;;;;5.07;78.71;101029.50;5065223;28;19924;-73
2021/05/07 04:26:36;;;;;;;;;;;;;;;4.91;77.82;101034.09;5057461;28;19924;-74
2021/05/07 04:29:03;;;;;;;;;;;;;;;4.93;77.69;101034.81;5057137;28;19924;-72
2021/05/07 04:31:29;;;;;;;;;;;;;;;4.92;78.58;101030.53;5049795;28;19924;-73
2021/05/07 04:33:55;;;;;;;;;;;;;;;4.91;77.13;101036.69;5059445;28;20497;-74
2021/05/07 04:36:21;;;;;;;;;;;;;;;4.87;77.53;101046.44;5054307;28;19924;-73
2021/05/07 04:38:47;;;;;;;;;;;;;;;4.80;77.10;101039.16;5063884;28;20304;-73
2021/05/07 04:41:13;;;;;;;;;;;;;;;4.79;77.58;101038.34;5046047;28;20358;-73
2021/05/07 04:43:39;;;;;;;;;;;;;;;4.77;76.88;101047.19;5050366;28;19954;-73
2021/05/07 04:46:04;;;;;;;;;;;;;;;4.83;78.48;101050.19;5044612;28;19924;-73
2021/05/07 04:48:31;;;;;;;;;;;;;;;4.85;77.52;101044.91;5049185;28;19925;-73
2021/05/07 04:50:57;;;;;;;;;;;;;;;4.82;77.16;101051.16;5043133;28;19963;-73
2021/05/07 04:53:22;;;;;;;;;;;;;;;4.82;77.26;101050.28;5047755;28;20462;-74
2021/05/07 04:55:48;;;;;;;;;;;;;;;4.82;77.90;101045.09;5060798;28;20159;-73
2021/05/07 04:58:15;;;;;;;;;;;;;;;4.78;76.78;101048.84;5048953;28;19929;-73
2021/05/07 05:00:41;;;;;;;;;;;;;;;4.62;76.77;101044.66;5053896;28;19925;-76
2021/05/07 05:03:07;;;;;;;;;;;;;;;4.58;77.62;101043.22;5050840;28;20265;-73
2021/05/07 05:05:33;;;;;;;;;;;;;;;4.46;76.85;101049.22;5055071;28;19928;-73
2021/05/07 05:07:59;;;;;;;;;;;;;;;4.36;76.77;101043.81;5058932;28;19971;-73
2021/05/07 05:10:25;;;;;;;;;;;;;;;4.49;78.05;101046.44;5051598;28;19920;-73
2021/05/07 05:12:51;;;;;;;;;;;;;;;4.43;77.20;101049.41;5056488;28;20401;-73
2021/05/07 05:15:19;;;;;;;;;;;;;;;4.24;78.85;101031.63;5060927;28;19928;-73
2021/05/07 05:17:45;;;;;;;;;;;;;;;4.12;78.75;101034.09;5054294;28;19981;-73
2021/05/07 05:20:11;;;;;;;;;;;;;;;4.26;79.30;101037.56;5045490;28;19940;-73
2021/05/07 05:22:38;;;;;;;;;;;;;;;4.27;78.62;101053.03;5051619;28;19958;-73
2021/05/07 05:25:05;;;;;;;;;;;;;;;4.28;78.47;101043.47;5051288;28;20423;-74
2021/05/07 05:27:34;;;;;;;;;;;;;;;4.26;79.17;101051.38;5051422;28;20006;-74
2021/05/07 05:30:01;;;;;;;;;;;;;;;4.18;78.63;101056.22;5050969;28;19967;-74
2021/05/07 05:32:27;;;;;;;;;;;;;;;4.21;78.06;101063.81;5050100;28;20018;-74
2021/05/07 05:34:54;;;;;;;;;;;;;;;4.24;77.94;101067.97;5051839;28;19928;-74
2021/05/07 05:37:20;;;;;;;;;;;;;;;4.32;78.77;101087.31;5041262;28;20260;-74
2021/05/07 05:39:46;;;;;;;;;;;;;;;4.40;79.91;101106.78;5037058;28;19969;-74
2021/05/07 05:42:27;;;;;;;;;;;;;;;4.48;79.82;101107.94;5060679;28;19940;-74
2021/05/07 05:44:53;;;;;;;;;;;;;;;4.49;79.00;101119.19;5058436;28;19928;-75
2021/05/07 05:47:19;;;;;;;;;;;;;;;4.57;79.74;101114.31;5042944;28;20254;-74
2021/05/07 05:49:45;;;;;;;;;;;;;;;4.63;79.19;101118.28;5054611;28;19935;-74
2021/05/07 05:52:11;;;;;;;;;;;;;;;4.66;78.93;101121.47;5032977;28;19928;-74
2021/05/07 05:54:37;;;;;;;;;;;;;;;4.55;78.21;101130.00;5062278;28;19958;-74
2021/05/07 05:57:03;;;;;;;;;;;;;;;4.55;77.96;101127.41;5056679;28;19924;-73
2021/05/07 05:59:29;;;;;;;;;;;;;;;4.58;77.94;101134.16;5043279;28;19963;-73
2021/05/07 06:01:55;;;;;;;;;;;;;;;4.59;78.18;101135.81;5042020;28;19931;-73
2021/05/07 06:04:21;;;;;;;;;;;;;;;4.56;78.80;101136.00;5048156;28;19924;-74
2021/05/07 06:06:48;;;;;;;;;;;;;;;4.60;79.58;101140.06;5054059;28;19928;-74
2021/05/07 06:09:14;;;;;;;;;;;;;;;4.65;79.75;101150.19;5057016;28;19924;-74
2021/05/07 06:11:39;;;;;;;;;;;;;;;4.64;79.08;101145.91;5059922;28;20027;-73
2021/05/07 06:14:05;;;;;;;;;;;;;;;4.49;78.29;101145.16;5054740;28;20594;-72
2021/05/07 06:16:33;;;;;;;;;;;;;;;4.43;78.46;101153.31;5045848;28;19978;-73
2021/05/07 06:18:59;;;;;;;;;;;;;;;4.30;78.13;101159.31;5060721;28;20387;-73
2021/05/07 06:21:25;;;;;;;;;;;;;;;4.39;78.19;101152.72;5055907;28;19925;-73
2021/05/07 06:23:51;;;;;;;;;;;;;;;4.32;77.80;101159.22;5065403;28;19950;-73
2021/05/07 06:26:17;;;;;;;;;;;;;;;4.41;78.62;101162.97;5057609;28;20427;-72
2021/05/07 06:28:43;;;;;;;;;;;;;;;4.41;78.68;101169.03;5061500;28;20253;-73
2021/05/07 06:31:09;;;;;;;;;;;;;;;4.54;79.35;101169.06;5052761;28;20315;-72
2021/05/07 06:33:36;;;;;;;;;;;;;;;4.48;78.37;101166.84;5058354;28;19946;-73
2021/05/07 06:36:02;;;;;;;;;;;;;;;4.55;78.66;101173.34;5046040;28;20005;-73
2021/05/07 06:38:28;;;;;;;;;;;;;;;4.50;78.07;101170.19;5060095;28;20019;-73
2021/05/07 06:40:54;;;;;;;;;;;;;;;4.46;77.96;101182.53;5066980;28;20007;-73
2021/05/07 06:43:20;;;;;;;;;;;;;;;4.52;78.90;101184.72;5058055;28;19924;-73
2021/05/07 06:45:46;;;;;;;;;;;;;;;4.58;79.25;101190.47;5060893;28;19931;-73
2021/05/07 06:48:12;;;;;;;;;;;;;;;4.67;79.74;101192.50;5057193;28;19924;-73
2021/05/07 06:50:38;;;;;;;;;;;;;;;4.73;79.22;101195.53;5060158;28;20371;-72
2021/05/07 06:53:04;;;;;;;;;;;;;;;4.73;78.87;101205.91;5062663;28;19940;-73
2021/05/07 06:55:30;;;;;;;;;;;;;;;4.87;79.75;101209.38;5047264;28;20390;-73
2021/05/07 06:57:56;;;;;;;;;;;;;;;4.94;79.37;101208.06;5064125;28;20248;-74
2021/05/07 07:00:22;;;;;;;;;;;;;;;5.02;79.34;101213.59;5054030;28;20012;-72
2021/05/07 07:02:48;;;;;;;;;;;;;;;5.13;79.45;101218.91;5069618;28;20835;-74
2021/05/07 07:05:14;;;;;;;;;;;;;;;5.18;78.58;101216.00;5042431;28;19924;-73
2021/05/07 07:07:40;;;;;;;;;;;;;;;5.27;78.25;101223.22;5060654;28;20241;-73
2021/05/07 07:10:18;;;;;;;;;;;;;;;5.35;77.89;101225.28;5064170;28;20242;-73
2021/05/07 07:12:44;;;;;;;;;;;;;;;5.39;77.75;101231.97;5050473;28;19925;-73
2021/05/07 07:15:10;;;;;;;;;;;;;;;5.47;78.29;101232.28;5060477;28;20367;-73
2021/05/07 07:17:37;;;;;;;;;;;;;;;5.54;77.42;101230.91;5055137;28;19931;-73
2021/05/07 07:20:04;;;;;;;;;;;;;;;5.61;77.22;101240.94;5061772;28;20389;-73
2021/05/07 07:22:30;;;;;;;;;;;;;;;5.67;77.23;101241.34;5037103;28;20371;-73
2021/05/07 07:24:56;;;;;;;;;;;;;;;5.72;77.11;101241.88;5061620;28;19931;-72
2021/05/07 07:27:22;;;;;;;;;;;;;;;5.81;77.03;101243.00;5062741;28;19932;-73
2021/05/07 07:29:48;;;;;;;;;;;;;;;5.88;77.09;101244.25;5056003;28;19928;-73
2021/05/07 07:32:14;;;;;;;;;;;;;;;5.88;76.80;101249.47;5062192;28;19969;-73
2021/05/07 07:34:41;;;;;;;;;;;;;;;5.91;76.12;101253.59;5050701;28;20300;-72
2021/05/07 07:37:07;;;;;;;;;;;;;;;5.98;76.44;101249.69;5055629;28;19925;-73
2021/05/07 07:39:33;;;;;;;;;;;;;;;6.06;75.81;101257.78;5062836;28;20403;-73
2021/05/07 07:41:59;;;;;;;;;;;;;;;6.13;75.86;101260.78;5051224;28;19935;-73
2021/05/07 07:44:25;;;;;;;;;;;;;;;6.18;75.63;101270.91;5063401;28;20295;-73
2021/05/07 07:46:51;;;;;;;;;;;;;;;6.16;74.75;101268.41;5059841;28;19925;-73
2021/05/07 07:49:18;;;;;;;;;;;;;;;6.19;73.96;101267.34;5058886;28;19929;-73
2021/05/07 07:51:44;;;;;;;;;;;;;;;6.26;74.19;101272.03;5048666;28;19924;-73
2021/05/07 07:54:12;;;;;;;;;;;;;;;6.30;73.78;101283.06;5062908;28;20012;-73
2021/05/07 07:56:38;;;;;;;;;;;;;;;6.32;74.08;101289.84;5068252;28;20395;-73
2021/05/07 07:59:04;;;;;;;;;;;;;;;6.43;72.82;101293.47;5054853;28;20449;-73
2021/05/07 08:01:30;;;;;;;;;;;;;;;6.53;73.50;101297.94;5060958;28;19947;-72
2021/05/07 08:03:56;;;;;;;;;;;;;;;6.63;73.48;101297.28;5047707;28;20280;-73
2021/05/07 08:06:23;;;;;;;;;;;;;;;6.65;73.50;101298.00;5056298;28;19978;-73
2021/05/07 08:08:49;;;;;;;;;;;;;;;6.58;72.73;101302.81;5055488;28;20702;-73
2021/05/07 08:11:16;;;;;;;;;;;;;;;6.63;72.15;101299.88;5060887;28;19932;-73
2021/05/07 08:13:42;;;;;;;;;;;;;;;6.75;72.34;101308.63;5060855;28;19941;-74
2021/05/07 08:16:09;;;;;;;;;;;;;;;6.96;72.88;101308.81;5049382;28;19943;-73
2021/05/07 08:18:35;;;;;;;;;;;;;;;7.22;72.13;101305.16;5053864;28;20015;-74
2021/05/07 08:21:01;;;;;;;;;;;;;;;7.62;72.74;101315.25;5037102;28;19931;-73
2021/05/07 08:23:27;;;;;;;;;;;;;;;7.81;70.04;101314.69;5062038;28;20376;-73
2021/05/07 08:25:53;;;;;;;;;;;;;;;8.30;70.46;101321.38;5062937;28;19924;-72
2021/05/07 08:28:19;;;;;;;;;;;;;;;8.49;65.72;101318.19;5054786;28;19959;-73
2021/05/07 08:30:45;;;;;;;;;;;;;;;8.62;66.26;101320.66;5057655;28;20283;-73
2021/05/07 08:33:11;;;;;;;;;;;;;;;8.77;65.88;101333.50;5050294;28;19925;-73
2021/05/07 08:35:37;;;;;;;;;;;;;;;8.96;66.62;101335.44;5061741;28;19924;-74
2021/05/07 08:38:03;;;;;;;;;;;;;;;9.15;62.65;101343.47;5054344;28;19928;-73
2021/05/07 08:40:29;;;;;;;;;;;;;;;8.89;62.12;101348.19;5045286;28;19967;-73
2021/05/07 08:42:55;;;;;;;;;;;;;;;9.16;60.48;101345.16;5060949;28;20303;-73
2021/05/07 08:45:26;;;;;;;;;;;;;;;9.67;63.29;101348.88;5050961;28;19964;-73
2021/05/07 08:48:07;;;;;;;;;;;;;;;9.96;62.71;101361.28;5058072;28;20266;-73
2021/05/07 08:50:34;;;;;;;;;;;;;;;9.78;59.51;101361.91;5059274;28;19958;-73
2021/05/07 08:53:00;;;;;;;;;;;;;;;10.23;60.55;101368.63;5043038;28;19986;-73
2021/05/07 08:55:26;;;;;;;;;;;;;;;9.87;56.13;101374.22;5061067;28;20002;-73
2021/05/07 08:57:52;;;;;;;;;;;;;;;10.17;55.74;101372.59;5060149;28;20139;-73
2021/05/07 09:00:18;;;;;;;;;;;;;;;10.15;59.28;101382.38;5055883;28;19924;-72
2021/05/07 09:02:44;;;;;;;;;;;;;;;9.84;59.59;101384.97;5054077;28;20396;-74
2021/05/07 09:05:11;;;;;;;;;;;;;;;9.77;59.82;101390.84;5062970;28;19924;-73
2021/05/07 09:07:37;;;;;;;;;;;;;;;10.03;61.00;101389.50;5053060;28;19954;-74
2021/05/07 09:10:03;;;;;;;;;;;;;;;10.21;58.09;101388.91;5064311;28;19925;-73
2021/05/07 09:12:37;;;;;;;;;;;;;;;10.79;56.45;101396.22;5051938;28;19925;-72
2021/05/07 09:15:05;;;;;;;;;;;;;;;11.16;53.42;101388.56;5058402;28;19955;-73
2021/05/07 09:17:33;;;;;;;;;;;;;;;11.44;52.75;101391.34;5058952;28;20016;-73
2021/05/07 09:20:04;;;;;;;;;;;;;;;11.54;50.30;101397.41;5055092;28;19924;-73
2021/05/07 09:22:30;;;;;;;;;;;;;;;11.44;53.56;101401.84;5059814;28;19925;-73
2021/05/07 09:25:15;;;;;;;;;;;;;;;11.20;52.05;101408.31;5056122;28;20051;-73
2021/05/07 09:27:42;;;;;;;;;;;;;;;11.03;53.91;101411.59;5056859;28;19925;-73
2021/05/07 09:30:11;;;;;;;;;;;;;;;11.17;50.90;101403.38;5050953;28;19977;-73
2021/05/07 09:32:37;;;;;;;;;;;;;;;11.51;51.76;101410.84;5060863;28;19924;-73
2021/05/07 09:35:07;;;;;;;;;;;;;;;11.85;50.97;101410.41;5052792;28;19924;-72
2021/05/07 09:37:34;;;;;;;;;;;;;;;12.17;50.31;101414.53;5060734;28;19974;-73
2021/05/07 09:40:32;;;;;;;;;;;;;;;12.41;47.59;101414.06;5065858;28;19931;-73
2021/05/07 09:43:22;;;;;;;;;;;;;;;12.71;49.54;101418.22;4996825;28;20029;-73
2021/05/07 09:45:49;;;;;;;;;;;;;;;12.86;46.34;101421.22;5066596;28;19924;-73
2021/05/07 09:48:15;;;;;;;;;;;;;;;12.90;43.41;101408.56;5057947;28;19928;-73
2021/05/07 09:50:41;;;;;;;;;;;;;;;13.02;45.24;101421.38;5064393;28;19924;-73
2021/05/07 09:53:09;;;;;;;;;;;;;;;13.47;47.50;101419.72;5057568;28;19928;-73
2021/05/07 09:55:36;;;;;;;;;;;;;;;13.24;46.82;101428.03;5060876;28;20368;-73
2021/05/07 09:58:02;;;;;;;;;;;;;;;13.58;45.70;101427.41;5056988;28;20403;-72
2021/05/07 10:00:28;;;;;;;;;;;;;;;13.77;45.23;101438.78;5065143;28;19931;-73
2021/05/07 10:02:55;;;;;;;;;;;;;;;14.01;46.53;101433.69;5063208;28;19924;-73
2021/05/07 10:05:27;;;;;;;;;;;;;;;13.72;45.13;101435.75;5061256;28;19924;-72
2021/05/07 10:07:53;;;;;;;;;;;;;;;13.91;45.47;101443.50;5060601;28;19972;-73
2021/05/07 10:10:24;;;;;;;;;;;;;;;13.95;42.99;101436.09;5052059;28;19936;-73
2021/05/07 10:12:53;;;;;;;;;;;;;;;13.72;42.75;101447.16;5062094;28;19964;-74
2021/05/07 10:15:26;;;;;;;;;;;;;;;13.68;45.78;101451.06;5057843;28;20514;-73
2021/05/07 10:17:52;;;;;;;;;;;;;;;13.41;45.14;101459.88;5047737;28;20417;-73
2021/05/07 10:20:22;;;;;;;;;;;;;;;13.19;45.14;101461.06;5064130;28;19924;-73
2021/05/07 10:22:55;;;;;;;;;;;;;;;13.00;46.46;101475.19;5049388;28;19935;-73
2021/05/07 10:25:23;;;;;;;;;;;;;;;12.93;47.18;101472.28;5064173;28;19939;-73
2021/05/07 10:27:52;;;;;;;;;;;;;;;12.78;48.94;101468.47;5054996;28;20006;-73
2021/05/07 10:30:23;;;;;;;;;;;;;;;12.60;49.79;101469.25;5061102;28;19967;-73
2021/05/07 10:33:08;;;;;;;;;;;;;;;12.40;50.00;101478.16;5052703;28;19978;-72
2021/05/07 10:35:39;;;;;;;;;;;;;;;12.26;50.14;101490.78;5063257;28;19924;-73
2021/05/07 10:38:08;;;;;;;;;;;;;;;12.41;51.37;101491.19;5055922;28;20233;-73
2021/05/07 10:40:34;;;;;;;;;;;;;;;12.90;48.94;101487.53;5061341;28;20283;-74
2021/05/07 10:43:00;;;;;;;;;;;;;;;12.93;46.38;101474.09;5050096;28;19924;-73
2021/05/07 10:45:45;;;;;;;;;;;;;;;13.57;49.13;101483.75;5052051;28;19924;-74
2021/05/07 10:48:18;;;;;;;;;;;;;;;13.98;45.18;101484.09;5056581;28;20027;-73
2021/05/07 10:50:46;;;;;;;;;;;;;;;14.17;43.51;101485.75;5058009;28;19924;-74
2021/05/07 10:53:22;;;;;;;;;;;;;;;13.92;41.85;101476.00;5067177;28;20092;-73
2021/05/07 10:55:48;;;;;;;;;;;;;;;14.07;41.90;101479.72;5052493;28;19999;-74
2021/05/07 10:58:14;;;;;;;;;;;;;;;14.12;42.65;101484.56;5063194;28;19928;-74
2021/05/07 11:00:40;;;;;;;;;;;;;;;14.18;41.74;101487.38;5056265;28;20387;-72
2021/05/07 11:03:19;;;;;;;;;;;;;;;14.60;41.69;101484.06;5035143;28;19956;-73
2021/05/07 11:05:47;;;;;;;;;;;;;;;14.28;41.63;101489.94;5062821;28;20450;-73
2021/05/07 11:08:13;;;;;;;;;;;;;;;13.84;43.57;101496.03;5054645;28;20380;-73
2021/05/07 11:10:39;;;;;;;;;;;;;;;13.60;45.79;101503.69;5060689;28;19934;-73
2021/05/07 11:13:06;;;;;;;;;;;;;;;13.29;46.92;101509.28;5049882;28;20011;-73
2021/05/07 11:15:32;;;;;;;;;;;;;;;12.98;46.50;101514.84;5054823;28;20714;-74
2021/05/07 11:17:58;;;;;;;;;;;;;;;12.81;45.99;101507.69;5060802;28;19920;-73
2021/05/07 11:20:54;;;;;;;;;;;;;;;12.59;46.15;101522.84;5061074;28;19930;-73
2021/05/07 11:23:20;;;;;;;;;;;;;;;12.46;45.14;101514.44;5046123;28;20380;-73
2021/05/07 11:25:46;;;;;;;;;;;;;;;12.50;45.31;101521.06;5058951;28;19935;-74
2021/05/07 11:28:17;;;;;;;;;;;;;;;12.62;45.30;101527.00;5055811;28;19925;-74
2021/05/07 11:30:47;;;;;;;;;;;;;;;13.19;45.08;101525.13;5056491;28;19979;-74
2021/05/07 11:33:13;;;;;;;;;;;;;;;13.62;44.15;101518.41;5060813;28;19930;-74
2021/05/07 11:35:41;;;;;;;;;;;;;;;13.93;44.46;101517.19;5056177;28;20310;-74
2021/05/07 11:38:07;;;;;;;;;;;;;;;13.98;44.57;101517.56;5044729;28;20011;-74
2021/05/07 11:40:41;;;;;;;;;;;;;;;13.71;45.09;101527.22;5062961;28;20007;-71
2021/05/07 11:43:11;;;;;;;;;;;;;;;13.50;43.50;101531.94;5048542;28;20445;-74
2021/05/07 11:45:37;;;;;;;;;;;;;;;13.04;44.63;101530.03;5058753;28;19956;-73
2021/05/07 11:48:10;;;;;;;;;;;;;;;13.43;45.49;101539.59;5054021;28;19924;-74
2021/05/07 11:50:37;;;;;;;;;;;;;;;13.68;44.72;101538.06;5060702;28;19981;-74
2021/05/07 11:53:03;;;;;;;;;;;;;;;13.50;43.17;101537.19;5057254;28;19931;-74
2021/05/07 11:55:31;;;;;;;;;;;;;;;13.64;42.98;101528.78;5039802;28;19924;-73
2021/05/07 11:58:00;;;;;;;;;;;;;;;13.99;41.27;101530.59;5041582;28;20341;-74
2021/05/07 12:00:27;;;;;;;;;;;;;;;14.48;40.50;101534.59;5054123;28;19928;-74
2021/05/07 12:03:00;;;;;;;;;;;;;;;14.08;39.98;101536.78;5060837;28;19924;-75
2021/05/07 12:05:33;;;;;;;;;;;;;;;14.38;40.64;101543.44;5053660;28;19931;-74
2021/05/07 12:08:00;;;;;;;;;;;;;;;14.62;40.72;101539.34;5062730;28;19931;-75
2021/05/07 12:10:28;;;;;;;;;;;;;;;14.39;41.77;101544.28;5035025;28;19977;-74
2021/05/07 12:12:55;;;;;;;;;;;;;;;14.16;42.64;101546.56;5060496;28;19988;-74
2021/05/07 12:15:27;;;;;;;;;;;;;;;14.44;40.58;101550.78;5059366;28;20024;-75
2021/05/07 12:17:54;;;;;;;;;;;;;;;14.81;40.10;101554.97;5054173;28;19924;-74
2021/05/07 12:20:20;;;;;;;;;;;;;;;14.44;39.91;101558.69;5060107;28;19981;-73
2021/05/07 12:22:54;;;;;;;;;;;;;;;15.05;40.10;101553.44;5048212;28;19931;-74
2021/05/07 12:25:22;;;;;;;;;;;;;;;15.38;37.81;101558.88;5055646;28;20349;-74
2021/05/07 12:27:48;;;;;;;;;;;;;;;15.57;38.07;101563.91;5054089;28;19978;-74
2021/05/07 12:30:32;;;;;;;;;;;;;;;15.74;38.64;101558.66;5065495;28;19964;-75
2021/05/07 12:33:11;;;;;;;;;;;;;;;15.70;37.38;101574.03;5051646;28;20024;-74
2021/05/07 12:35:39;;;;;;;;;;;;;;;16.08;38.11;101573.63;5059753;28;20451;-74
2021/05/07 12:38:18;;;;;;;;;;;;;;;15.71;34.89;101570.38;5056615;28;19974;-74
2021/05/07 12:40:45;;;;;;;;;;;;;;;16.00;36.55;101582.38;5046659;28;19981;-75
2021/05/07 12:43:11;;;;;;;;;;;;;;;15.97;36.01;101574.75;5043858;28;19924;-73
2021/05/07 12:45:37;;;;;;;;;;;;;;;15.66;36.74;101577.13;5054104;28;20011;-73